Delta Pride — DSNG6 — position and weather

sailwx.info

Track history (hours):
 
Tides and Currents Weather Stations Pressure Air Temp Water Temp Dewpoint Dewpoint Depression Visibility Wind Speed Wind Dir Waves Ship Positions

Delta Pride

Last reported at 2016-Jul-23 14:32 UTC. Time now 2016-Jul-26 04:37 UTC.
Position N 48°33' W 126°23'.

Length 186 m; draft 11.1 m.

Type: Cargo ship. MMSI: 441339000.

Date/timePositionNaut miles runAvg speedWind from/ knotsBaromVisibWave heightAir tempDewpointWater temp
2016-Jul-23 14:32N 48°33' W 126°23'1212.7
2016-Jul-23 13:33N 48°33' W 126°04'1312.9
2016-Jul-23 12:33N 48°32' W 125°44'1312.8
2016-Jul-23 11:33N 48°32' W 125°25'1212.4
2016-Jul-23 10:33N 48°31' W 125°06'1212.1
2016-Jul-23 09:33N 48°31' W 124°48'1312.8
2016-Jul-23 08:33N 48°27' W 124°30'1313.2
2016-Jul-23 07:33N 48°22' W 124°11'1313.3
2016-Jul-23 06:33N 48°17' W 123°52'2211.1
2016-Jul-23 04:33N 48°23' W 123°20'1110.7
2016-Jul-23 03:33N 48°32' W 123°13'1010.5
2016-Jul-23 02:33N 48°43' W 123°13'10 9.9
2016-Jul-23 01:33N 48°49' W 123°01'1212.2
2016-Jul-23 00:33N 48°58' W 123°14'1110.8
2016-Jul-22 23:33N 49°07' W 123°23'1212.3
2016-Jul-22 22:33N 49°18' W 123°17'9 8.5
2016-Jul-22 21:33N 49°18' W 123°04'0 0.3
2016-Jul-22 20:33N 49°18' W 123°03'0 0.0
2016-Jul-22 19:33N 49°18' W 123°03'0 0.0
2016-Jul-22 18:33N 49°18' W 123°03'0 0.0
2016-Jul-22 17:33N 49°18' W 123°03'0 0.0
2016-Jul-22 16:33N 49°18' W 123°03'0 0.0
2016-Jul-22 15:33N 49°18' W 123°03'0 0.0
2016-Jul-22 14:33N 49°18' W 123°03'0 0.0
2016-Jul-22 13:33N 49°18' W 123°03'0 0.0
2016-Jul-22 12:33N 49°18' W 123°03'0 0.0
2016-Jul-22 11:33N 49°18' W 123°03'0 0.0
2016-Jul-22 10:33N 49°18' W 123°03'0 0.0
2016-Jul-22 09:33N 49°18' W 123°03'0 0.0
2016-Jul-22 08:33N 49°18' W 123°03'0 0.0
2016-Jul-22 07:33N 49°18' W 123°03'0 0.0
2016-Jul-22 04:33N 49°18' W 123°03'0 0.0
2016-Jul-22 03:33N 49°18' W 123°03'0 0.0
2016-Jul-22 02:33N 49°18' W 123°03'0 0.0
2016-Jul-22 01:33N 49°18' W 123°03'0 0.0
2016-Jul-22 00:33N 49°18' W 123°03'0 0.0
2016-Jul-21 23:33N 49°18' W 123°03'0 0.0
2016-Jul-21 22:34N 49°18' W 123°03'5 4.8
2016-Jul-21 21:34N 49°19' W 123°11'2 1.9
2016-Jul-21 20:32N 49°18' W 123°13'0 0.0
2016-Jul-21 19:32N 49°18' W 123°13'0 0.1
2016-Jul-21 18:32N 49°18' W 123°13'0 0.1
2016-Jul-21 17:20N 49°18' W 123°13'0 0.0
2016-Jul-21 15:32N 49°18' W 123°13'0 0.0
2016-Jul-21 14:32N 49°18' W 123°13'0 0.0
2016-Jul-21 12:32N 49°18' W 123°13'0 0.0
2016-Jul-21 11:08N 49°18' W 123°13'0 0.0
2016-Jul-21 08:26N 49°18' W 123°13'0 0.0
2016-Jul-21 03:32N 49°18' W 123°13'0 0.0
2016-Jul-21 02:32N 49°18' W 123°13'0 0.0
2016-Jul-21 01:32N 49°18' W 123°13'0 0.0
2016-Jul-21 00:32N 49°18' W 123°13'0 0.0
2016-Jul-20 23:32N 49°18' W 123°13'0 0.0
2016-Jul-20 22:32N 49°18' W 123°13'0 0.0
2016-Jul-20 21:32N 49°18' W 123°13'0 0.0
2016-Jul-20 20:32N 49°18' W 123°13'0 0.1
2016-Jul-20 19:32N 49°18' W 123°13'0 0.1
2016-Jul-20 18:32N 49°18' W 123°13'0 0.0
2016-Jul-20 17:32N 49°18' W 123°13'0 0.0
2016-Jul-20 16:32N 49°18' W 123°13'0 0.0
2016-Jul-20 15:32N 49°18' W 123°13'0 0.0
2016-Jul-20 14:32N 49°18' W 123°13'0 0.0
2016-Jul-20 13:32N 49°18' W 123°13'0 0.1
2016-Jul-20 12:32N 49°18' W 123°13'0 0.0
2016-Jul-20 11:32N 49°18' W 123°13'0 0.0
2016-Jul-20 10:32N 49°18' W 123°13'0 0.0
2016-Jul-20 09:29N 49°18' W 123°13'0 0.0
2016-Jul-20 08:32N 49°18' W 123°13'0 0.0
2016-Jul-20 07:32N 49°18' W 123°13'0 0.0
2016-Jul-20 06:32N 49°18' W 123°13'0 0.0
2016-Jul-20 05:32N 49°18' W 123°13'0 0.0
2016-Jul-20 04:32N 49°18' W 123°13'0 0.1
2016-Jul-20 03:32N 49°18' W 123°13'0 0.1
2016-Jul-20 02:32N 49°18' W 123°13'0 0.0
2016-Jul-20 01:32N 49°18' W 123°13'0 0.0
2016-Jul-20 00:29N 49°18' W 123°13'0 0.0
2016-Jul-19 23:32N 49°18' W 123°13'0 0.0
2016-Jul-19 22:32N 49°18' W 123°13'3 3.5
2016-Jul-19 21:33N 49°16' W 123°18'1414.1
2016-Jul-19 20:34N 49°02' W 123°17'1514.9
2016-Jul-19 19:33N 48°51' W 123°02'1110.7
2016-Jul-19 18:33N 48°43' W 123°11'1010.1
2016-Jul-19 17:33N 48°33' W 123°11'9 9.3
2016-Jul-19 16:33N 48°23' W 123°13'1110.9
2016-Jul-19 15:33N 48°17' W 123°26'1010.3
2016-Jul-19 14:33N 48°14' W 123°41'1111.3
2016-Jul-19 13:33N 48°15' W 123°58'1212.0
2016-Jul-19 12:33N 48°19' W 124°14'1312.6
2016-Jul-19 11:33N 48°25' W 124°32'1212.4
2016-Jul-19 10:33N 48°29' W 124°49'1312.5
2016-Jul-19 09:33N 48°22' W 125°06'22613.1
2016-Jul-18 16:16N 44°40' W 126°05'38510.8
2016-Jul-17 04:32N 38°26' W 124°05'1210.5
2016-Jul-17 03:22N 38°21' W 123°50'911.1
2016-Jul-17 02:33N 38°17' W 123°40'1111.4
2016-Jul-17 01:33N 38°12' W 123°27'9 9.3
2016-Jul-17 00:33N 38°07' W 123°17'10 9.6
2016-Jul-16 23:33N 37°59' W 123°09'9 9.4
2016-Jul-16 22:33N 37°54' W 122°59'10 9.7
2016-Jul-16 21:33N 37°50' W 122°48'1010.1
2016-Jul-16 20:33N 37°47' W 122°36'11 9.8
2016-Jul-16 19:25N 37°55' W 122°27'910.8
2016-Jul-16 18:33N 38°03' W 122°20'21 9.7
2016-Jul-16 16:23N 38°03' W 121°54'2 0.5
2016-Jul-16 12:28N 38°02' W 121°52'0 0.0
2016-Jul-16 10:16N 38°02' W 121°52'0 0.0
2016-Jul-16 09:28N 38°02' W 121°52'0 0.0
2016-Jul-16 07:16N 38°02' W 121°52'0 0.0
2016-Jul-16 03:22N 38°02' W 121°52'0 0.0
2016-Jul-16 00:22N 38°02' W 121°52'0 0.0
2016-Jul-15 17:28N 38°02' W 121°52'0 0.0
2016-Jul-15 16:22N 38°02' W 121°52'0 0.0
2016-Jul-15 15:28N 38°02' W 121°52'0 0.0
2016-Jul-15 13:16N 38°02' W 121°52'0 0.0
2016-Jul-15 12:22N 38°02' W 121°52'0 0.0
2016-Jul-15 11:28N 38°02' W 121°52'0 0.0
2016-Jul-15 10:28N 38°02' W 121°52'0 0.0
2016-Jul-15 09:22N 38°02' W 121°52'0 0.0
2016-Jul-15 08:16N 38°02' W 121°52'0 0.0
2016-Jul-15 07:28N 38°02' W 121°52'0 0.0
2016-Jul-15 06:22N 38°02' W 121°52'0 0.0
2016-Jul-15 05:28N 38°02' W 121°52'0 0.0
2016-Jul-15 01:10N 38°02' W 121°52'0 0.0
2016-Jul-14 14:10N 38°02' W 121°52'0 0.0
2016-Jul-14 13:22N 38°02' W 121°52'0 0.0
2016-Jul-14 12:22N 38°02' W 121°52'0 0.0
2016-Jul-14 11:22N 38°02' W 121°52'0 0.0
2016-Jul-14 10:28N 38°02' W 121°52'0 0.0
2016-Jul-14 09:28N 38°02' W 121°52'0 0.0
2016-Jul-13 22:22N 38°02' W 121°52'0 0.4
2016-Jul-13 21:16N 38°02' W 121°51'2 2.3
2016-Jul-13 20:24N 38°03' W 121°54'11 8.3
2016-Jul-13 19:05N 38°02' W 122°07'5 9.4
2016-Jul-13 18:32N 38°04' W 122°13'1310.7
2016-Jul-13 17:19N 37°56' W 122°27'6 8.5
2016-Jul-13 16:33N 37°49' W 122°28'1010.4
2016-Jul-13 15:33N 37°45' W 122°40'10 9.7
2016-Jul-13 14:33N 37°39' W 122°50'  
Track history (hours):
 
Tides and Currents Weather Stations Pressure Air Temp Water Temp Dewpoint Dewpoint Depression Visibility Wind Speed Wind Dir Waves Ship Positions

Delta Pride

Last reported at 2016-Jul-23 14:32 UTC. Time now 2016-Jul-26 04:37 UTC.
Position N 48°33' W 126°23'.

Length 186 m; draft 11.1 m.

Type: Cargo ship. MMSI: 441339000.

Date/timePositionNaut miles runAvg speedWind from/ knotsBaromVisibWave heightAir tempDewpointWater temp
2016-Jul-23 14:32N 48°33' W 126°23'1212.7
2016-Jul-23 13:33N 48°33' W 126°04'1312.9
2016-Jul-23 12:33N 48°32' W 125°44'1312.8
2016-Jul-23 11:33N 48°32' W 125°25'1212.4
2016-Jul-23 10:33N 48°31' W 125°06'1212.1
2016-Jul-23 09:33N 48°31' W 124°48'1312.8
2016-Jul-23 08:33N 48°27' W 124°30'1313.2
2016-Jul-23 07:33N 48°22' W 124°11'1313.3
2016-Jul-23 06:33N 48°17' W 123°52'2211.1
2016-Jul-23 04:33N 48°23' W 123°20'1110.7
2016-Jul-23 03:33N 48°32' W 123°13'1010.5
2016-Jul-23 02:33N 48°43' W 123°13'10 9.9
2016-Jul-23 01:33N 48°49' W 123°01'1212.2
2016-Jul-23 00:33N 48°58' W 123°14'1110.8
2016-Jul-22 23:33N 49°07' W 123°23'1212.3
2016-Jul-22 22:33N 49°18' W 123°17'9 8.5
2016-Jul-22 21:33N 49°18' W 123°04'0 0.3
2016-Jul-22 20:33N 49°18' W 123°03'0 0.0
2016-Jul-22 19:33N 49°18' W 123°03'0 0.0
2016-Jul-22 18:33N 49°18' W 123°03'0 0.0
2016-Jul-22 17:33N 49°18' W 123°03'0 0.0
2016-Jul-22 16:33N 49°18' W 123°03'0 0.0
2016-Jul-22 15:33N 49°18' W 123°03'0 0.0
2016-Jul-22 14:33N 49°18' W 123°03'0 0.0
2016-Jul-22 13:33N 49°18' W 123°03'0 0.0
2016-Jul-22 12:33N 49°18' W 123°03'0 0.0
2016-Jul-22 11:33N 49°18' W 123°03'0 0.0
2016-Jul-22 10:33N 49°18' W 123°03'0 0.0
2016-Jul-22 09:33N 49°18' W 123°03'0 0.0
2016-Jul-22 08:33N 49°18' W 123°03'0 0.0
2016-Jul-22 07:33N 49°18' W 123°03'0 0.0
2016-Jul-22 04:33N 49°18' W 123°03'0 0.0
2016-Jul-22 03:33N 49°18' W 123°03'0 0.0
2016-Jul-22 02:33N 49°18' W 123°03'0 0.0
2016-Jul-22 01:33N 49°18' W 123°03'0 0.0
2016-Jul-22 00:33N 49°18' W 123°03'0 0.0
2016-Jul-21 23:33N 49°18' W 123°03'0 0.0
2016-Jul-21 22:34N 49°18' W 123°03'5 4.8
2016-Jul-21 21:34N 49°19' W 123°11'2 1.9
2016-Jul-21 20:32N 49°18' W 123°13'0 0.0
2016-Jul-21 19:32N 49°18' W 123°13'0 0.1
2016-Jul-21 18:32N 49°18' W 123°13'0 0.1
2016-Jul-21 17:20N 49°18' W 123°13'0 0.0
2016-Jul-21 15:32N 49°18' W 123°13'0 0.0
2016-Jul-21 14:32N 49°18' W 123°13'0 0.0
2016-Jul-21 12:32N 49°18' W 123°13'0 0.0
2016-Jul-21 11:08N 49°18' W 123°13'0 0.0
2016-Jul-21 08:26N 49°18' W 123°13'0 0.0
2016-Jul-21 03:32N 49°18' W 123°13'0 0.0
2016-Jul-21 02:32N 49°18' W 123°13'0 0.0
2016-Jul-21 01:32N 49°18' W 123°13'0 0.0
2016-Jul-21 00:32N 49°18' W 123°13'0 0.0
2016-Jul-20 23:32N 49°18' W 123°13'0 0.0
2016-Jul-20 22:32N 49°18' W 123°13'0 0.0
2016-Jul-20 21:32N 49°18' W 123°13'0 0.0
2016-Jul-20 20:32N 49°18' W 123°13'0 0.1
2016-Jul-20 19:32N 49°18' W 123°13'0 0.1
2016-Jul-20 18:32N 49°18' W 123°13'0 0.0
2016-Jul-20 17:32N 49°18' W 123°13'0 0.0
2016-Jul-20 16:32N 49°18' W 123°13'0 0.0
2016-Jul-20 15:32N 49°18' W 123°13'0 0.0
2016-Jul-20 14:32N 49°18' W 123°13'0 0.0
2016-Jul-20 13:32N 49°18' W 123°13'0 0.1
2016-Jul-20 12:32N 49°18' W 123°13'0 0.0
2016-Jul-20 11:32N 49°18' W 123°13'0 0.0
2016-Jul-20 10:32N 49°18' W 123°13'0 0.0
2016-Jul-20 09:29N 49°18' W 123°13'0 0.0
2016-Jul-20 08:32N 49°18' W 123°13'0 0.0
2016-Jul-20 07:32N 49°18' W 123°13'0 0.0
2016-Jul-20 06:32N 49°18' W 123°13'0 0.0
2016-Jul-20 05:32N 49°18' W 123°13'0 0.0
2016-Jul-20 04:32N 49°18' W 123°13'0 0.1
2016-Jul-20 03:32N 49°18' W 123°13'0 0.1
2016-Jul-20 02:32N 49°18' W 123°13'0 0.0
2016-Jul-20 01:32N 49°18' W 123°13'0 0.0
2016-Jul-20 00:29N 49°18' W 123°13'0 0.0
2016-Jul-19 23:32N 49°18' W 123°13'0 0.0
2016-Jul-19 22:32N 49°18' W 123°13'3 3.5
2016-Jul-19 21:33N 49°16' W 123°18'1414.1
2016-Jul-19 20:34N 49°02' W 123°17'1514.9
2016-Jul-19 19:33N 48°51' W 123°02'1110.7
2016-Jul-19 18:33N 48°43' W 123°11'1010.1
2016-Jul-19 17:33N 48°33' W 123°11'9 9.3
2016-Jul-19 16:33N 48°23' W 123°13'1110.9
2016-Jul-19 15:33N 48°17' W 123°26'1010.3
2016-Jul-19 14:33N 48°14' W 123°41'1111.3
2016-Jul-19 13:33N 48°15' W 123°58'1212.0
2016-Jul-19 12:33N 48°19' W 124°14'1312.6
2016-Jul-19 11:33N 48°25' W 124°32'1212.4
2016-Jul-19 10:33N 48°29' W 124°49'1312.5
2016-Jul-19 09:33N 48°22' W 125°06'22613.1
2016-Jul-18 16:16N 44°40' W 126°05'38510.8
2016-Jul-17 04:32N 38°26' W 124°05'1210.5
2016-Jul-17 03:22N 38°21' W 123°50'911.1
2016-Jul-17 02:33N 38°17' W 123°40'1111.4
2016-Jul-17 01:33N 38°12' W 123°27'9 9.3
2016-Jul-17 00:33N 38°07' W 123°17'10 9.6
2016-Jul-16 23:33N 37°59' W 123°09'9 9.4
2016-Jul-16 22:33N 37°54' W 122°59'10 9.7
2016-Jul-16 21:33N 37°50' W 122°48'1010.1
2016-Jul-16 20:33N 37°47' W 122°36'11 9.8
2016-Jul-16 19:25N 37°55' W 122°27'910.8
2016-Jul-16 18:33N 38°03' W 122°20'21 9.7
2016-Jul-16 16:23N 38°03' W 121°54'2 0.5
2016-Jul-16 12:28N 38°02' W 121°52'0 0.0
2016-Jul-16 10:16N 38°02' W 121°52'0 0.0
2016-Jul-16 09:28N 38°02' W 121°52'0 0.0
2016-Jul-16 07:16N 38°02' W 121°52'0 0.0
2016-Jul-16 03:22N 38°02' W 121°52'0 0.0
2016-Jul-16 00:22N 38°02' W 121°52'0 0.0
2016-Jul-15 17:28N 38°02' W 121°52'0 0.0
2016-Jul-15 16:22N 38°02' W 121°52'0 0.0
2016-Jul-15 15:28N 38°02' W 121°52'0 0.0
2016-Jul-15 13:16N 38°02' W 121°52'0 0.0
2016-Jul-15 12:22N 38°02' W 121°52'0 0.0
2016-Jul-15 11:28N 38°02' W 121°52'0 0.0
2016-Jul-15 10:28N 38°02' W 121°52'0 0.0
2016-Jul-15 09:22N 38°02' W 121°52'0 0.0
2016-Jul-15 08:16N 38°02' W 121°52'0 0.0
2016-Jul-15 07:28N 38°02' W 121°52'0 0.0
2016-Jul-15 06:22N 38°02' W 121°52'0 0.0
2016-Jul-15 05:28N 38°02' W 121°52'0 0.0
2016-Jul-15 01:10N 38°02' W 121°52'0 0.0
2016-Jul-14 14:10N 38°02' W 121°52'0 0.0
2016-Jul-14 13:22N 38°02' W 121°52'0 0.0
2016-Jul-14 12:22N 38°02' W 121°52'0 0.0
2016-Jul-14 11:22N 38°02' W 121°52'0 0.0
2016-Jul-14 10:28N 38°02' W 121°52'0 0.0
2016-Jul-14 09:28N 38°02' W 121°52'0 0.0
2016-Jul-13 22:22N 38°02' W 121°52'0 0.4
2016-Jul-13 21:16N 38°02' W 121°51'2 2.3
2016-Jul-13 20:24N 38°03' W 121°54'11 8.3
2016-Jul-13 19:05N 38°02' W 122°07'5 9.4
2016-Jul-13 18:32N 38°04' W 122°13'1310.7
2016-Jul-13 17:19N 37°56' W 122°27'6 8.5
2016-Jul-13 16:33N 37°49' W 122°28'1010.4
2016-Jul-13 15:33N 37°45' W 122°40'10 9.7
2016-Jul-13 14:33N 37°39' W 122°50'  

Dump ship's entire track history